SDP - Sand Point

Pirep is a free, collaborative database of all public and private airports located within the United States. All pilots are welcome to contribute, edit, and improve any airport they have local knowledge about, no registration required.
Are you familiar with this airport? Help out other pilots by adding your local knowledge.
Uploaded photos will be licensed under a CC BY-SA 4.0 license. Please only upload photos you have the rights to use.
Tags
Public
Undocu­mented
METAR / TAF
Webcam
Edit Tags
Food
Camping
Lodging
Car Rental
Bicycles
Swimming
Golfing
Fishing
Hot Springs
Museum
Flying Clubs
Airpark
Upcoming Events
No upcoming events. Is anything happening here soon?
*
*
*

Where exactly on/near the airport is this event taking place?

Is there a webpage with more information for this event?

Who should be contacted for more information?

What is this event all about?

Repeat every
Description
Transient Parking
Fuel Location
Landing & Tie-down Fees
Crew Car Availability
Flying Clubs
WiFi Access
Airport Statistics
Location: Sand Point, AK
Elevation: 23ft
Sectional: Cold Bay
Activation date: Jun 1958
Fuel: A (prices)
Runway 14/32: 5,213ft
Access: Open to the public
Current Weather — VFR
  • Weather data is strictly informational and not for flight planning purposes.
  • METAR
    2024-05-24 16:58:00 AKDT
    Ceiling Wind Temperature Dewpoint Weather Visbility
    3,800ft 240° @ 9kt 42°F 35°F N/A 10SM
    Clouds: Few @ 2,100ft, Scattered @ 2,700ft, Overcast @ 3,800ft
    Raw: PASD 250058Z 24009KT 10SM FEW021 SCT027 OVC038 06/02 A2981 RMK AO2 PNO $
  • TAF
    2024-05-24 16:00:00 AKDT – 2024-05-24 18:00:00 AKDT
    Ceiling Wind Weather Visbility
    3,500ft 230° @ 10kt N/A 6SM
    Clouds: Few @ 2,000ft, Scattered @ 2,800ft, Broken @ 3,500ft
    Raw: PASD 242324Z 2500/2524 23010KT P6SM FEW020 SCT028 BKN035 FM250200 25015KT P6SM -RA OVC015 FM251500 28015KT 5SM -RA OVC020
  • TAF
    2024-05-24 18:00:00 AKDT – 2024-05-25 07:00:00 AKDT
    Ceiling Wind Weather Visbility
    1,500ft 250° @ 15kt Light rain 6SM
    Clouds: Overcast @ 1,500ft
    Raw: PASD 242324Z 2500/2524 23010KT P6SM FEW020 SCT028 BKN035 FM250200 25015KT P6SM -RA OVC015 FM251500 28015KT 5SM -RA OVC020
  • TAF
    2024-05-25 07:00:00 AKDT – 2024-05-25 16:00:00 AKDT
    Ceiling Wind Weather Visbility
    2,000ft 280° @ 15kt Light rain 5SM
    Clouds: Overcast @ 2,000ft
    Raw: PASD 242324Z 2500/2524 23010KT P6SM FEW020 SCT028 BKN035 FM250200 25015KT P6SM -RA OVC015 FM251500 28015KT 5SM -RA OVC020
Click/tap to add an annotation marker to the map
Direct links to live image URLs will be displayed inline on this page. URLs to separate webpages will be linked to.
URL:
Direct links to live image URLs will be displayed inline on this page. URLs to separate webpages will be linked to.
URL:
Remarks
  • Actvt rotg bcn - ctaf.
  • Clsd to acr more than 30 pax seats exc ppr in writing - amgr.
  • Birds invof arpt.
  • 80-320 ft cliff e side of rwy; exp turb on apch rwy 32.
  • Sand lrgr gradation than recmd/see ac150/5200-30.
  • Sand point wx 0800-1800 - 132.05 or 907-383-2403.
  • Actvt reil rwy 14 & 32; papi rwy 14 & 32; mirl rwy 14/32 - ctaf.
  • Ovr 6000 lb.
Comments
Leave a comment What was your experience like at this airport?